sensor_id;sensor_type;location;lat;lon;timestamp;P1;durP1;ratioP1;P2;durP2;ratioP2
32130;SDS011;18639;50.716;7.086;2022-11-11T00:01:05;3.17;;;1.38;;
32130;SDS011;18639;50.716;7.086;2022-11-11T00:03:41;2.85;;;1.20;;
32130;SDS011;18639;50.716;7.086;2022-11-11T00:06:12;3.65;;;1.77;;
32130;SDS011;18639;50.716;7.086;2022-11-11T00:08:45;3.33;;;1.48;;
32130;SDS011;18639;50.716;7.086;2022-11-11T00:11:11;2.35;;;1.30;;
32130;SDS011;18639;50.716;7.086;2022-11-11T00:13:37;4.55;;;1.38;;
32130;SDS011;18639;50.716;7.086;2022-11-11T00:16:04;2.92;;;1.52;;
32130;SDS011;18639;50.716;7.086;2022-11-11T00:18:36;3.70;;;1.40;;
32130;SDS011;18639;50.716;7.086;2022-11-11T00:21:24;2.53;;;1.23;;
32130;SDS011;18639;50.716;7.086;2022-11-11T00:24:02;2.17;;;1.25;;
32130;SDS011;18639;50.716;7.086;2022-11-11T00:26:47;2.42;;;1.23;;
32130;SDS011;18639;50.716;7.086;2022-11-11T00:29:12;3.75;;;1.30;;
32130;SDS011;18639;50.716;7.086;2022-11-11T00:31:38;2.40;;;1.40;;
32130;SDS011;18639;50.716;7.086;2022-11-11T00:34:23;2.38;;;1.10;;
32130;SDS011;18639;50.716;7.086;2022-11-11T00:36:48;3.20;;;1.50;;
32130;SDS011;18639;50.716;7.086;2022-11-11T00:39:14;4.93;;;1.83;;
32130;SDS011;18639;50.716;7.086;2022-11-11T00:41:39;3.78;;;1.48;;
32130;SDS011;18639;50.716;7.086;2022-11-11T00:44:04;4.85;;;1.20;;
32130;SDS011;18639;50.716;7.086;2022-11-11T00:46:29;7.03;;;1.42;;
32130;SDS011;18639;50.716;7.086;2022-11-11T00:49:13;3.35;;;1.33;;
32130;SDS011;18639;50.716;7.086;2022-11-11T00:51:57;3.17;;;1.35;;
32130;SDS011;18639;50.716;7.086;2022-11-11T00:54:23;2.97;;;1.20;;
32130;SDS011;18639;50.716;7.086;2022-11-11T00:56:48;3.85;;;1.25;;
32130;SDS011;18639;50.716;7.086;2022-11-11T00:59:13;3.80;;;1.23;;
32130;SDS011;18639;50.716;7.086;2022-11-11T01:01:39;3.35;;;1.45;;
32130;SDS011;18639;50.716;7.086;2022-11-11T01:04:04;3.35;;;1.48;;
32130;SDS011;18639;50.716;7.086;2022-11-11T01:06:30;5.70;;;1.33;;
32130;SDS011;18639;50.716;7.086;2022-11-11T01:08:55;3.35;;;1.55;;
32130;SDS011;18639;50.716;7.086;2022-11-11T01:11:21;3.33;;;1.67;;
32130;SDS011;18639;50.716;7.086;2022-11-11T01:13:48;2.83;;;1.58;;
32130;SDS011;18639;50.716;7.086;2022-11-11T01:16:15;3.58;;;1.38;;
32130;SDS011;18639;50.716;7.086;2022-11-11T01:18:45;3.20;;;1.23;;
32130;SDS011;18639;50.716;7.086;2022-11-11T01:21:18;2.67;;;1.20;;
32130;SDS011;18639;50.716;7.086;2022-11-11T01:23:45;2.60;;;1.30;;
32130;SDS011;18639;50.716;7.086;2022-11-11T01:26:17;3.97;;;1.30;;
32130;SDS011;18639;50.716;7.086;2022-11-11T01:28:53;2.25;;;1.45;;
32130;SDS011;18639;50.716;7.086;2022-11-11T01:31:21;3.05;;;1.20;;
32130;SDS011;18639;50.716;7.086;2022-11-11T01:33:48;2.55;;;1.05;;
32130;SDS011;18639;50.716;7.086;2022-11-11T01:36:17;2.63;;;1.00;;
32130;SDS011;18639;50.716;7.086;2022-11-11T01:38:49;1.75;;;1.10;;
32130;SDS011;18639;50.716;7.086;2022-11-11T01:41:22;3.40;;;1.48;;
32130;SDS011;18639;50.716;7.086;2022-11-11T01:44:11;2.88;;;1.30;;
32130;SDS011;18639;50.716;7.086;2022-11-11T01:54:40;1.85;;;1.02;;
32130;SDS011;18639;50.716;7.086;2022-11-11T01:57:21;2.92;;;1.20;;
32130;SDS011;18639;50.716;7.086;2022-11-11T01:59:53;2.60;;;1.15;;
32130;SDS011;18639;50.716;7.086;2022-11-11T02:02:41;4.72;;;2.00;;
32130;SDS011;18639;50.716;7.086;2022-11-11T02:05:11;3.70;;;1.20;;
32130;SDS011;18639;50.716;7.086;2022-11-11T02:07:59;1.98;;;0.90;;
32130;SDS011;18639;50.716;7.086;2022-11-11T02:10:28;3.95;;;1.23;;
32130;SDS011;18639;50.716;7.086;2022-11-11T02:12:56;3.42;;;1.30;;
32130;SDS011;18639;50.716;7.086;2022-11-11T02:15:39;3.58;;;1.73;;
32130;SDS011;18639;50.716;7.086;2022-11-11T02:18:05;3.47;;;1.52;;
32130;SDS011;18639;50.716;7.086;2022-11-11T02:20:42;3.85;;;1.23;;
32130;SDS011;18639;50.716;7.086;2022-11-11T02:23:16;1.63;;;1.00;;
32130;SDS011;18639;50.716;7.086;2022-11-11T02:25:49;2.20;;;1.35;;
32130;SDS011;18639;50.716;7.086;2022-11-11T02:28:16;2.08;;;1.30;;
32130;SDS011;18639;50.716;7.086;2022-11-11T02:30:43;2.25;;;1.20;;
32130;SDS011;18639;50.716;7.086;2022-11-11T02:33:08;1.98;;;0.70;;
32130;SDS011;18639;50.716;7.086;2022-11-11T02:35:35;2.25;;;1.17;;
32130;SDS011;18639;50.716;7.086;2022-11-11T02:38:03;3.17;;;1.48;;
32130;SDS011;18639;50.716;7.086;2022-11-11T02:40:42;2.13;;;1.17;;
32130;SDS011;18639;50.716;7.086;2022-11-11T02:43:28;1.73;;;1.10;;
32130;SDS011;18639;50.716;7.086;2022-11-11T02:45:58;3.42;;;1.20;;
32130;SDS011;18639;50.716;7.086;2022-11-11T02:48:24;1.73;;;1.00;;
32130;SDS011;18639;50.716;7.086;2022-11-11T02:50:50;6.13;;;1.42;;
32130;SDS011;18639;50.716;7.086;2022-11-11T02:53:15;4.28;;;1.33;;
32130;SDS011;18639;50.716;7.086;2022-11-11T02:55:40;4.32;;;1.35;;
32130;SDS011;18639;50.716;7.086;2022-11-11T02:58:06;2.67;;;1.33;;
32130;SDS011;18639;50.716;7.086;2022-11-11T03:00:31;3.70;;;1.40;;
32130;SDS011;18639;50.716;7.086;2022-11-11T03:02:57;3.10;;;1.10;;
32130;SDS011;18639;50.716;7.086;2022-11-11T03:05:22;2.53;;;1.20;;
32130;SDS011;18639;50.716;7.086;2022-11-11T03:07:48;2.20;;;1.02;;
32130;SDS011;18639;50.716;7.086;2022-11-11T03:10:14;2.92;;;1.13;;
32130;SDS011;18639;50.716;7.086;2022-11-11T03:12:40;2.40;;;1.02;;
32130;SDS011;18639;50.716;7.086;2022-11-11T03:15:05;2.65;;;1.40;;
32130;SDS011;18639;50.716;7.086;2022-11-11T03:17:31;2.03;;;1.15;;
32130;SDS011;18639;50.716;7.086;2022-11-11T03:20:08;4.07;;;1.23;;
32130;SDS011;18639;50.716;7.086;2022-11-11T03:25:32;2.78;;;1.08;;
32130;SDS011;18639;50.716;7.086;2022-11-11T03:28:05;1.67;;;0.90;;
32130;SDS011;18639;50.716;7.086;2022-11-11T03:30:33;2.33;;;1.10;;
32130;SDS011;18639;50.716;7.086;2022-11-11T03:32:59;2.53;;;0.95;;
32130;SDS011;18639;50.716;7.086;2022-11-11T03:35:25;3.10;;;1.60;;
32130;SDS011;18639;50.716;7.086;2022-11-11T03:37:50;1.45;;;0.90;;
32130;SDS011;18639;50.716;7.086;2022-11-11T03:40:34;4.07;;;1.25;;
32130;SDS011;18639;50.716;7.086;2022-11-11T03:42:59;2.00;;;1.20;;
32130;SDS011;18639;50.716;7.086;2022-11-11T03:45:24;2.10;;;1.00;;
32130;SDS011;18639;50.716;7.086;2022-11-11T03:47:49;4.20;;;1.55;;
32130;SDS011;18639;50.716;7.086;2022-11-11T03:50:15;3.58;;;1.42;;
32130;SDS011;18639;50.716;7.086;2022-11-11T03:52:40;3.55;;;1.13;;
32130;SDS011;18639;50.716;7.086;2022-11-11T03:55:09;2.15;;;1.08;;
32130;SDS011;18639;50.716;7.086;2022-11-11T03:57:37;3.58;;;1.40;;
32130;SDS011;18639;50.716;7.086;2022-11-11T04:00:04;4.68;;;1.42;;
32130;SDS011;18639;50.716;7.086;2022-11-11T04:02:30;3.28;;;1.35;;
32130;SDS011;18639;50.716;7.086;2022-11-11T04:05:14;3.15;;;1.25;;
32130;SDS011;18639;50.716;7.086;2022-11-11T04:07:58;3.97;;;1.02;;
32130;SDS011;18639;50.716;7.086;2022-11-11T04:10:42;4.30;;;1.27;;
32130;SDS011;18639;50.716;7.086;2022-11-11T04:13:07;1.90;;;1.10;;
32130;SDS011;18639;50.716;7.086;2022-11-11T04:15:52;3.25;;;1.08;;
32130;SDS011;18639;50.716;7.086;2022-11-11T04:18:33;1.15;;;0.80;;
32130;SDS011;18639;50.716;7.086;2022-11-11T04:21:34;2.90;;;0.90;;
32130;SDS011;18639;50.716;7.086;2022-11-11T04:24:16;3.17;;;1.30;;
32130;SDS011;18639;50.716;7.086;2022-11-11T04:27:03;3.17;;;1.23;;
32130;SDS011;18639;50.716;7.086;2022-11-11T04:29:30;3.97;;;1.40;;
32130;SDS011;18639;50.716;7.086;2022-11-11T04:32:06;2.88;;;1.30;;
32130;SDS011;18639;50.716;7.086;2022-11-11T04:34:55;2.08;;;1.20;;
32130;SDS011;18639;50.716;7.086;2022-11-11T04:37:32;3.63;;;1.10;;
32130;SDS011;18639;50.716;7.086;2022-11-11T04:39:59;2.20;;;1.15;;
32130;SDS011;18639;50.716;7.086;2022-11-11T04:42:42;1.35;;;0.90;;
32130;SDS011;18639;50.716;7.086;2022-11-11T04:45:09;4.82;;;1.42;;
32130;SDS011;18639;50.716;7.086;2022-11-11T04:47:55;1.90;;;1.08;;
32130;SDS011;18639;50.716;7.086;2022-11-11T04:50:29;3.17;;;1.17;;
32130;SDS011;18639;50.716;7.086;2022-11-11T04:52:56;2.63;;;1.10;;
32130;SDS011;18639;50.716;7.086;2022-11-11T04:55:22;4.78;;;0.93;;
32130;SDS011;18639;50.716;7.086;2022-11-11T04:58:06;1.67;;;0.73;;
32130;SDS011;18639;50.716;7.086;2022-11-11T05:00:32;2.05;;;1.00;;
32130;SDS011;18639;50.716;7.086;2022-11-11T05:02:58;5.40;;;1.40;;
32130;SDS011;18639;50.716;7.086;2022-11-11T05:05:49;1.73;;;1.02;;
32130;SDS011;18639;50.716;7.086;2022-11-11T05:08:38;2.08;;;1.00;;
32130;SDS011;18639;50.716;7.086;2022-11-11T05:11:21;3.10;;;0.98;;
32130;SDS011;18639;50.716;7.086;2022-11-11T05:13:54;3.40;;;1.10;;
32130;SDS011;18639;50.716;7.086;2022-11-11T05:16:47;3.90;;;1.40;;
32130;SDS011;18639;50.716;7.086;2022-11-11T05:19:32;2.72;;;1.00;;
32130;SDS011;18639;50.716;7.086;2022-11-11T05:22:33;1.83;;;0.90;;
32130;SDS011;18639;50.716;7.086;2022-11-11T05:25:01;2.53;;;1.20;;
32130;SDS011;18639;50.716;7.086;2022-11-11T05:27:45;3.55;;;1.30;;
32130;SDS011;18639;50.716;7.086;2022-11-11T05:30:11;1.85;;;1.17;;
32130;SDS011;18639;50.716;7.086;2022-11-11T05:32:37;2.60;;;1.05;;
32130;SDS011;18639;50.716;7.086;2022-11-11T05:35:03;2.50;;;1.20;;
32130;SDS011;18639;50.716;7.086;2022-11-11T05:37:29;2.80;;;1.10;;
32130;SDS011;18639;50.716;7.086;2022-11-11T05:39:55;1.90;;;1.25;;
32130;SDS011;18639;50.716;7.086;2022-11-11T05:42:20;4.53;;;1.17;;
32130;SDS011;18639;50.716;7.086;2022-11-11T05:44:46;1.70;;;0.98;;
32130;SDS011;18639;50.716;7.086;2022-11-11T05:47:11;3.50;;;1.15;;
32130;SDS011;18639;50.716;7.086;2022-11-11T05:49:37;2.50;;;1.40;;
32130;SDS011;18639;50.716;7.086;2022-11-11T05:52:02;1.70;;;1.08;;
32130;SDS011;18639;50.716;7.086;2022-11-11T05:54:28;1.90;;;1.10;;
32130;SDS011;18639;50.716;7.086;2022-11-11T05:56:54;2.25;;;1.13;;
32130;SDS011;18639;50.716;7.086;2022-11-11T05:59:19;2.53;;;0.98;;
32130;SDS011;18639;50.716;7.086;2022-11-11T06:01:44;3.63;;;0.95;;
32130;SDS011;18639;50.716;7.086;2022-11-11T06:04:09;2.97;;;1.63;;
32130;SDS011;18639;50.716;7.086;2022-11-11T06:06:35;3.58;;;1.27;;
32130;SDS011;18639;50.716;7.086;2022-11-11T06:09:01;3.15;;;1.40;;
32130;SDS011;18639;50.716;7.086;2022-11-11T06:11:27;2.65;;;1.15;;
32130;SDS011;18639;50.716;7.086;2022-11-11T06:13:52;3.85;;;1.30;;
32130;SDS011;18639;50.716;7.086;2022-11-11T06:16:18;2.72;;;1.17;;
32130;SDS011;18639;50.716;7.086;2022-11-11T06:18:44;3.30;;;1.40;;
32130;SDS011;18639;50.716;7.086;2022-11-11T06:21:10;2.45;;;1.10;;
32130;SDS011;18639;50.716;7.086;2022-11-11T06:23:35;3.28;;;1.58;;
32130;SDS011;18639;50.716;7.086;2022-11-11T06:26:02;2.45;;;1.27;;
32130;SDS011;18639;50.716;7.086;2022-11-11T06:28:47;2.80;;;1.00;;
32130;SDS011;18639;50.716;7.086;2022-11-11T06:31:24;4.18;;;1.67;;
32130;SDS011;18639;50.716;7.086;2022-11-11T06:33:50;3.47;;;0.90;;
32130;SDS011;18639;50.716;7.086;2022-11-11T06:36:17;4.35;;;1.25;;
32130;SDS011;18639;50.716;7.086;2022-11-11T06:38:44;3.28;;;1.42;;
32130;SDS011;18639;50.716;7.086;2022-11-11T06:41:09;3.17;;;1.10;;
32130;SDS011;18639;50.716;7.086;2022-11-11T06:43:39;4.60;;;1.60;;
32130;SDS011;18639;50.716;7.086;2022-11-11T06:46:05;4.60;;;1.40;;
32130;SDS011;18639;50.716;7.086;2022-11-11T06:48:31;4.15;;;1.45;;
32130;SDS011;18639;50.716;7.086;2022-11-11T06:51:03;4.75;;;1.70;;
32130;SDS011;18639;50.716;7.086;2022-11-11T06:53:30;6.20;;;1.70;;
32130;SDS011;18639;50.716;7.086;2022-11-11T06:55:55;3.95;;;1.38;;
32130;SDS011;18639;50.716;7.086;2022-11-11T06:58:22;4.70;;;1.70;;
32130;SDS011;18639;50.716;7.086;2022-11-11T07:00:48;3.22;;;1.48;;
32130;SDS011;18639;50.716;7.086;2022-11-11T07:03:15;5.35;;;1.60;;
32130;SDS011;18639;50.716;7.086;2022-11-11T07:05:42;2.35;;;1.10;;
32130;SDS011;18639;50.716;7.086;2022-11-11T07:08:09;2.78;;;1.25;;
32130;SDS011;18639;50.716;7.086;2022-11-11T07:10:37;6.32;;;1.67;;
32130;SDS011;18639;50.716;7.086;2022-11-11T07:13:04;2.67;;;1.27;;
32130;SDS011;18639;50.716;7.086;2022-11-11T07:15:30;5.43;;;1.92;;
32130;SDS011;18639;50.716;7.086;2022-11-11T07:17:56;4.00;;;1.60;;
32130;SDS011;18639;50.716;7.086;2022-11-11T07:20:21;4.18;;;1.67;;
32130;SDS011;18639;50.716;7.086;2022-11-11T07:22:47;4.65;;;1.58;;
32130;SDS011;18639;50.716;7.086;2022-11-11T07:25:12;3.03;;;1.30;;
32130;SDS011;18639;50.716;7.086;2022-11-11T07:27:38;5.63;;;1.60;;
32130;SDS011;18639;50.716;7.086;2022-11-11T07:30:04;3.72;;;1.33;;
32130;SDS011;18639;50.716;7.086;2022-11-11T07:32:31;2.85;;;1.38;;
32130;SDS011;18639;50.716;7.086;2022-11-11T07:34:56;4.63;;;1.90;;
32130;SDS011;18639;50.716;7.086;2022-11-11T07:37:21;3.45;;;1.20;;
32130;SDS011;18639;50.716;7.086;2022-11-11T07:39:47;6.57;;;1.58;;
32130;SDS011;18639;50.716;7.086;2022-11-11T07:42:12;3.10;;;1.52;;
32130;SDS011;18639;50.716;7.086;2022-11-11T07:44:37;2.67;;;1.05;;
32130;SDS011;18639;50.716;7.086;2022-11-11T07:47:02;2.70;;;1.77;;
32130;SDS011;18639;50.716;7.086;2022-11-11T07:49:28;2.97;;;1.27;;
32130;SDS011;18639;50.716;7.086;2022-11-11T07:51:53;4.35;;;1.38;;
32130;SDS011;18639;50.716;7.086;2022-11-11T07:54:18;3.22;;;1.40;;
32130;SDS011;18639;50.716;7.086;2022-11-11T07:56:43;4.22;;;1.77;;
32130;SDS011;18639;50.716;7.086;2022-11-11T07:59:09;3.40;;;1.33;;
32130;SDS011;18639;50.716;7.086;2022-11-11T08:01:34;3.60;;;1.08;;
32130;SDS011;18639;50.716;7.086;2022-11-11T08:03:59;7.93;;;1.55;;
32130;SDS011;18639;50.716;7.086;2022-11-11T08:06:25;2.38;;;1.15;;
32130;SDS011;18639;50.716;7.086;2022-11-11T08:08:50;4.93;;;1.40;;
32130;SDS011;18639;50.716;7.086;2022-11-11T08:11:15;2.72;;;1.25;;
32130;SDS011;18639;50.716;7.086;2022-11-11T08:13:41;3.50;;;1.20;;
32130;SDS011;18639;50.716;7.086;2022-11-11T08:16:10;4.15;;;1.60;;
32130;SDS011;18639;50.716;7.086;2022-11-11T08:18:37;4.60;;;1.45;;
32130;SDS011;18639;50.716;7.086;2022-11-11T08:21:03;4.63;;;1.40;;
32130;SDS011;18639;50.716;7.086;2022-11-11T08:23:29;2.67;;;1.42;;
32130;SDS011;18639;50.716;7.086;2022-11-11T08:26:02;2.85;;;1.45;;
32130;SDS011;18639;50.716;7.086;2022-11-11T08:28:29;5.70;;;1.42;;
32130;SDS011;18639;50.716;7.086;2022-11-11T08:30:59;3.40;;;1.42;;
32130;SDS011;18639;50.716;7.086;2022-11-11T08:33:26;4.03;;;1.38;;
32130;SDS011;18639;50.716;7.086;2022-11-11T08:35:52;5.53;;;1.45;;
32130;SDS011;18639;50.716;7.086;2022-11-11T08:38:19;2.22;;;1.27;;
32130;SDS011;18639;50.716;7.086;2022-11-11T08:40:45;1.58;;;1.05;;
32130;SDS011;18639;50.716;7.086;2022-11-11T08:43:10;4.85;;;1.40;;
32130;SDS011;18639;50.716;7.086;2022-11-11T08:45:36;2.17;;;1.30;;
32130;SDS011;18639;50.716;7.086;2022-11-11T08:48:02;4.25;;;1.55;;
32130;SDS011;18639;50.716;7.086;2022-11-11T08:50:28;2.60;;;1.42;;
32130;SDS011;18639;50.716;7.086;2022-11-11T08:52:53;4.25;;;1.33;;
32130;SDS011;18639;50.716;7.086;2022-11-11T08:55:19;2.00;;;1.13;;
32130;SDS011;18639;50.716;7.086;2022-11-11T08:57:44;2.65;;;1.25;;
32130;SDS011;18639;50.716;7.086;2022-11-11T09:00:10;2.67;;;1.30;;
32130;SDS011;18639;50.716;7.086;2022-11-11T09:02:36;5.32;;;1.45;;
32130;SDS011;18639;50.716;7.086;2022-11-11T09:05:02;3.25;;;1.33;;
32130;SDS011;18639;50.716;7.086;2022-11-11T09:07:28;2.65;;;1.30;;
32130;SDS011;18639;50.716;7.086;2022-11-11T09:09:54;3.92;;;1.52;;
32130;SDS011;18639;50.716;7.086;2022-11-11T09:12:19;3.17;;;1.55;;
32130;SDS011;18639;50.716;7.086;2022-11-11T09:14:45;2.38;;;1.30;;
32130;SDS011;18639;50.716;7.086;2022-11-11T09:17:10;2.35;;;1.15;;
32130;SDS011;18639;50.716;7.086;2022-11-11T09:19:36;2.05;;;1.10;;
32130;SDS011;18639;50.716;7.086;2022-11-11T09:22:01;1.67;;;1.20;;
32130;SDS011;18639;50.716;7.086;2022-11-11T09:24:26;4.22;;;1.35;;
32130;SDS011;18639;50.716;7.086;2022-11-11T09:26:52;2.13;;;1.10;;
32130;SDS011;18639;50.716;7.086;2022-11-11T09:29:17;2.20;;;0.95;;
32130;SDS011;18639;50.716;7.086;2022-11-11T09:31:43;4.03;;;1.52;;
32130;SDS011;18639;50.716;7.086;2022-11-11T09:34:09;3.05;;;1.35;;
32130;SDS011;18639;50.716;7.086;2022-11-11T09:36:35;0.95;;;0.77;;
32130;SDS011;18639;50.716;7.086;2022-11-11T09:39:00;4.13;;;1.10;;
32130;SDS011;18639;50.716;7.086;2022-11-11T09:41:33;1.48;;;1.05;;
32130;SDS011;18639;50.716;7.086;2022-11-11T09:44:17;3.50;;;1.30;;
32130;SDS011;18639;50.716;7.086;2022-11-11T09:46:59;2.28;;;1.00;;
32130;SDS011;18639;50.716;7.086;2022-11-11T09:52:15;1.88;;;0.90;;
32130;SDS011;18639;50.716;7.086;2022-11-11T09:54:47;2.15;;;1.17;;
32130;SDS011;18639;50.716;7.086;2022-11-11T09:57:24;2.67;;;1.15;;
32130;SDS011;18639;50.716;7.086;2022-11-11T10:00:01;3.13;;;0.95;;
32130;SDS011;18639;50.716;7.086;2022-11-11T10:05:18;1.73;;;1.08;;
32130;SDS011;18639;50.716;7.086;2022-11-11T10:07:59;5.28;;;1.20;;
32130;SDS011;18639;50.716;7.086;2022-11-11T10:13:11;2.80;;;0.68;;
32130;SDS011;18639;50.716;7.086;2022-11-11T10:15:52;2.50;;;0.98;;
32130;SDS011;18639;50.716;7.086;2022-11-11T10:21:07;2.03;;;0.95;;
32130;SDS011;18639;50.716;7.086;2022-11-11T10:23:39;2.17;;;1.05;;
32130;SDS011;18639;50.716;7.086;2022-11-11T10:26:38;4.00;;;0.90;;
32130;SDS011;18639;50.716;7.086;2022-11-11T10:28:56;2.30;;;0.80;;
32130;SDS011;18639;50.716;7.086;2022-11-11T10:31:24;1.63;;;0.70;;
32130;SDS011;18639;50.716;7.086;2022-11-11T10:33:51;1.55;;;0.80;;
32130;SDS011;18639;50.716;7.086;2022-11-11T10:36:22;2.67;;;0.93;;
32130;SDS011;18639;50.716;7.086;2022-11-11T10:38:57;2.17;;;0.75;;
32130;SDS011;18639;50.716;7.086;2022-11-11T10:41:42;1.52;;;0.90;;
32130;SDS011;18639;50.716;7.086;2022-11-11T10:46:54;2.22;;;0.85;;
32130;SDS011;18639;50.716;7.086;2022-11-11T10:49:29;4.85;;;1.55;;
32130;SDS011;18639;50.716;7.086;2022-11-11T10:52:06;2.80;;;0.75;;
32130;SDS011;18639;50.716;7.086;2022-11-11T10:57:18;2.15;;;0.90;;
32130;SDS011;18639;50.716;7.086;2022-11-11T10:59:54;2.10;;;0.80;;
32130;SDS011;18639;50.716;7.086;2022-11-11T11:02:30;1.48;;;0.73;;
32130;SDS011;18639;50.716;7.086;2022-11-11T11:05:10;1.20;;;0.60;;
32130;SDS011;18639;50.716;7.086;2022-11-11T11:07:44;0.88;;;0.70;;
32130;SDS011;18639;50.716;7.086;2022-11-11T11:10:18;1.05;;;0.55;;
32130;SDS011;18639;50.716;7.086;2022-11-11T11:12:52;1.73;;;1.02;;
32130;SDS011;18639;50.716;7.086;2022-11-11T11:15:27;1.63;;;0.90;;
32130;SDS011;18639;50.716;7.086;2022-11-11T11:18:01;0.75;;;0.50;;
32130;SDS011;18639;50.716;7.086;2022-11-11T11:20:30;1.33;;;0.88;;
32130;SDS011;18639;50.716;7.086;2022-11-11T11:22:56;2.38;;;0.90;;
32130;SDS011;18639;50.716;7.086;2022-11-11T11:25:23;0.60;;;0.55;;
32130;SDS011;18639;50.716;7.086;2022-11-11T11:27:50;1.80;;;0.73;;
32130;SDS011;18639;50.716;7.086;2022-11-11T11:30:18;0.93;;;0.45;;
32130;SDS011;18639;50.716;7.086;2022-11-11T11:32:59;1.23;;;0.55;;
32130;SDS011;18639;50.716;7.086;2022-11-11T11:35:30;1.25;;;0.70;;
32130;SDS011;18639;50.716;7.086;2022-11-11T11:37:58;1.58;;;0.70;;
32130;SDS011;18639;50.716;7.086;2022-11-11T11:40:24;0.63;;;0.50;;
32130;SDS011;18639;50.716;7.086;2022-11-11T11:42:49;2.55;;;0.60;;
32130;SDS011;18639;50.716;7.086;2022-11-11T11:47:56;0.88;;;0.70;;
32130;SDS011;18639;50.716;7.086;2022-11-11T12:10:12;2.20;;;0.57;;
32130;SDS011;18639;50.716;7.086;2022-11-11T12:18:27;0.88;;;0.60;;
32130;SDS011;18639;50.716;7.086;2022-11-11T12:21:20;2.58;;;0.60;;
32130;SDS011;18639;50.716;7.086;2022-11-11T12:23:57;1.08;;;0.50;;
32130;SDS011;18639;50.716;7.086;2022-11-11T12:29:47;1.08;;;0.70;;
32130;SDS011;18639;50.716;7.086;2022-11-11T12:32:37;2.33;;;0.90;;
32130;SDS011;18639;50.716;7.086;2022-11-11T12:37:56;0.93;;;0.60;;
32130;SDS011;18639;50.716;7.086;2022-11-11T12:43:26;0.50;;;0.50;;
32130;SDS011;18639;50.716;7.086;2022-11-11T12:49:04;0.50;;;0.50;;
32130;SDS011;18639;50.716;7.086;2022-11-11T13:14:36;2.85;;;0.60;;
32130;SDS011;18639;50.716;7.086;2022-11-11T13:17:22;2.08;;;0.68;;
32130;SDS011;18639;50.716;7.086;2022-11-11T13:19:52;1.50;;;0.88;;
32130;SDS011;18639;50.716;7.086;2022-11-11T13:24:56;1.25;;;0.70;;
32130;SDS011;18639;50.716;7.086;2022-11-11T13:32:53;0.98;;;0.60;;
32130;SDS011;18639;50.716;7.086;2022-11-11T13:35:38;2.13;;;0.70;;
32130;SDS011;18639;50.716;7.086;2022-11-11T13:38:10;1.58;;;0.80;;
32130;SDS011;18639;50.716;7.086;2022-11-11T13:40:48;1.42;;;0.60;;
32130;SDS011;18639;50.716;7.086;2022-11-11T13:43:20;0.63;;;0.50;;
32130;SDS011;18639;50.716;7.086;2022-11-11T13:45:51;0.60;;;0.60;;
32130;SDS011;18639;50.716;7.086;2022-11-11T13:48:43;2.20;;;0.50;;
32130;SDS011;18639;50.716;7.086;2022-11-11T13:53:55;0.85;;;0.63;;
32130;SDS011;18639;50.716;7.086;2022-11-11T13:56:25;1.33;;;0.65;;
32130;SDS011;18639;50.716;7.086;2022-11-11T13:58:52;0.50;;;0.40;;
32130;SDS011;18639;50.716;7.086;2022-11-11T14:01:20;1.23;;;0.45;;
32130;SDS011;18639;50.716;7.086;2022-11-11T14:13:48;0.70;;;0.60;;
32130;SDS011;18639;50.716;7.086;2022-11-11T14:18:58;1.98;;;0.70;;
32130;SDS011;18639;50.716;7.086;2022-11-11T14:24:22;1.67;;;0.68;;
32130;SDS011;18639;50.716;7.086;2022-11-11T14:27:01;0.70;;;0.60;;
32130;SDS011;18639;50.716;7.086;2022-11-11T14:29:30;2.67;;;0.80;;
32130;SDS011;18639;50.716;7.086;2022-11-11T14:37:20;1.08;;;0.50;;
32130;SDS011;18639;50.716;7.086;2022-11-11T14:39:53;8.57;;;1.13;;
32130;SDS011;18639;50.716;7.086;2022-11-11T14:45:03;1.70;;;0.60;;
32130;SDS011;18639;50.716;7.086;2022-11-11T14:47:50;0.80;;;0.65;;
32130;SDS011;18639;50.716;7.086;2022-11-11T14:50:39;2.30;;;0.70;;
32130;SDS011;18639;50.716;7.086;2022-11-11T14:53:07;1.65;;;0.65;;
32130;SDS011;18639;50.716;7.086;2022-11-11T14:55:38;1.25;;;0.60;;
32130;SDS011;18639;50.716;7.086;2022-11-11T14:58:14;1.95;;;1.23;;
32130;SDS011;18639;50.716;7.086;2022-11-11T15:00:52;0.60;;;0.55;;
32130;SDS011;18639;50.716;7.086;2022-11-11T15:03:39;1.05;;;0.68;;
32130;SDS011;18639;50.716;7.086;2022-11-11T15:11:42;0.95;;;0.60;;
32130;SDS011;18639;50.716;7.086;2022-11-11T15:14:18;1.42;;;0.90;;
32130;SDS011;18639;50.716;7.086;2022-11-11T15:16:56;1.17;;;0.50;;
32130;SDS011;18639;50.716;7.086;2022-11-11T15:22:33;6.28;;;0.60;;
32130;SDS011;18639;50.716;7.086;2022-11-11T15:33:44;0.60;;;0.52;;
32130;SDS011;18639;50.716;7.086;2022-11-11T15:39:04;0.80;;;0.60;;
32130;SDS011;18639;50.716;7.086;2022-11-11T15:41:35;1.17;;;0.68;;
32130;SDS011;18639;50.716;7.086;2022-11-11T15:44:04;1.60;;;0.85;;
32130;SDS011;18639;50.716;7.086;2022-11-11T15:46:37;0.82;;;0.77;;
32130;SDS011;18639;50.716;7.086;2022-11-11T15:49:11;1.67;;;0.60;;
32130;SDS011;18639;50.716;7.086;2022-11-11T15:51:37;3.70;;;0.65;;
32130;SDS011;18639;50.716;7.086;2022-11-11T15:54:10;0.77;;;0.55;;
32130;SDS011;18639;50.716;7.086;2022-11-11T15:56:42;0.85;;;0.70;;
32130;SDS011;18639;50.716;7.086;2022-11-11T15:59:16;0.80;;;0.70;;
32130;SDS011;18639;50.716;7.086;2022-11-11T16:01:43;1.90;;;0.93;;
32130;SDS011;18639;50.716;7.086;2022-11-11T16:04:09;1.75;;;0.80;;
32130;SDS011;18639;50.716;7.086;2022-11-11T16:06:38;5.22;;;1.00;;
32130;SDS011;18639;50.716;7.086;2022-11-11T16:09:04;1.80;;;0.88;;
32130;SDS011;18639;50.716;7.086;2022-11-11T16:11:31;1.33;;;0.80;;
32130;SDS011;18639;50.716;7.086;2022-11-11T16:13:58;0.93;;;0.60;;
32130;SDS011;18639;50.716;7.086;2022-11-11T16:16:30;0.80;;;0.60;;
32130;SDS011;18639;50.716;7.086;2022-11-11T16:19:11;3.03;;;0.80;;
32130;SDS011;18639;50.716;7.086;2022-11-11T16:21:47;1.65;;;0.88;;
32130;SDS011;18639;50.716;7.086;2022-11-11T16:24:25;0.93;;;0.60;;
32130;SDS011;18639;50.716;7.086;2022-11-11T16:26:54;1.02;;;0.60;;
32130;SDS011;18639;50.716;7.086;2022-11-11T16:29:20;0.63;;;0.60;;
32130;SDS011;18639;50.716;7.086;2022-11-11T16:31:48;1.48;;;0.93;;
32130;SDS011;18639;50.716;7.086;2022-11-11T16:36:57;2.22;;;0.80;;
32130;SDS011;18639;50.716;7.086;2022-11-11T16:39:26;1.85;;;1.05;;
32130;SDS011;18639;50.716;7.086;2022-11-11T16:41:53;2.08;;;0.63;;
32130;SDS011;18639;50.716;7.086;2022-11-11T16:44:36;0.98;;;0.55;;
32130;SDS011;18639;50.716;7.086;2022-11-11T16:47:05;1.23;;;0.80;;
32130;SDS011;18639;50.716;7.086;2022-11-11T16:51:56;0.98;;;0.65;;
32130;SDS011;18639;50.716;7.086;2022-11-11T16:54:32;1.08;;;0.70;;
32130;SDS011;18639;50.716;7.086;2022-11-11T16:57:01;1.05;;;0.45;;
32130;SDS011;18639;50.716;7.086;2022-11-11T16:59:34;0.68;;;0.50;;
32130;SDS011;18639;50.716;7.086;2022-11-11T17:02:03;0.65;;;0.60;;
32130;SDS011;18639;50.716;7.086;2022-11-11T17:04:50;0.60;;;0.60;;
32130;SDS011;18639;50.716;7.086;2022-11-11T17:09:52;1.30;;;0.82;;
32130;SDS011;18639;50.716;7.086;2022-11-11T17:12:17;0.90;;;0.60;;
32130;SDS011;18639;50.716;7.086;2022-11-11T17:14:54;0.95;;;0.75;;
32130;SDS011;18639;50.716;7.086;2022-11-11T17:17:20;1.10;;;0.50;;
32130;SDS011;18639;50.716;7.086;2022-11-11T17:19:45;0.82;;;0.70;;
32130;SDS011;18639;50.716;7.086;2022-11-11T17:22:11;1.33;;;0.90;;
32130;SDS011;18639;50.716;7.086;2022-11-11T17:24:36;3.60;;;1.05;;
32130;SDS011;18639;50.716;7.086;2022-11-11T17:27:03;1.70;;;0.90;;
32130;SDS011;18639;50.716;7.086;2022-11-11T17:29:29;1.55;;;1.02;;
32130;SDS011;18639;50.716;7.086;2022-11-11T17:31:54;1.73;;;1.00;;
32130;SDS011;18639;50.716;7.086;2022-11-11T17:34:20;1.27;;;0.80;;
32130;SDS011;18639;50.716;7.086;2022-11-11T17:36:45;1.17;;;0.90;;
32130;SDS011;18639;50.716;7.086;2022-11-11T17:39:10;2.00;;;0.93;;
32130;SDS011;18639;50.716;7.086;2022-11-11T17:41:36;2.40;;;1.00;;